sensor_id;sensor_type;location;lat;lon;timestamp;pressure;altitude;pressure_sealevel;temperature;humidity
23805;BME280;12083;52.098;7.582;2022-09-21T00:00:52;102278.50;;;12.53;67.43
23805;BME280;12083;52.098;7.582;2022-09-21T00:03:18;102279.41;;;12.49;67.23
23805;BME280;12083;52.098;7.582;2022-09-21T00:05:44;102278.56;;;12.45;67.28
23805;BME280;12083;52.098;7.582;2022-09-21T00:08:12;102277.69;;;12.41;67.63
23805;BME280;12083;52.098;7.582;2022-09-21T00:10:38;102280.38;;;12.38;67.67
23805;BME280;12083;52.098;7.582;2022-09-21T00:13:04;102275.09;;;12.37;67.24
23805;BME280;12083;52.098;7.582;2022-09-21T00:15:31;102272.47;;;12.32;67.52
23805;BME280;12083;52.098;7.582;2022-09-21T00:17:58;102279.53;;;12.30;67.67
23805;BME280;12083;52.098;7.582;2022-09-21T00:20:24;102276.03;;;12.28;67.62
23805;BME280;12083;52.098;7.582;2022-09-21T00:22:50;102274.28;;;12.26;67.37
23805;BME280;12083;52.098;7.582;2022-09-21T00:25:17;102273.44;;;12.22;67.61
23805;BME280;12083;52.098;7.582;2022-09-21T00:27:43;102276.97;;;12.18;67.62
23805;BME280;12083;52.098;7.582;2022-09-21T00:30:12;102277.88;;;12.16;67.50
23805;BME280;12083;52.098;7.582;2022-09-21T00:32:37;102284.00;;;12.13;67.72
23805;BME280;12083;52.098;7.582;2022-09-21T00:35:05;102282.28;;;12.09;67.65
23805;BME280;12083;52.098;7.582;2022-09-21T00:37:34;102295.47;;;12.06;67.68
23805;BME280;12083;52.098;7.582;2022-09-21T00:40:01;102291.97;;;12.04;67.67
23805;BME280;12083;52.098;7.582;2022-09-21T00:42:33;102286.72;;;11.98;67.74
23805;BME280;12083;52.098;7.582;2022-09-21T00:44:59;102286.75;;;11.97;67.78
23805;BME280;12083;52.098;7.582;2022-09-21T00:47:29;102283.25;;;11.93;67.73
23805;BME280;12083;52.098;7.582;2022-09-21T00:49:56;102290.28;;;11.91;67.73
23805;BME280;12083;52.098;7.582;2022-09-21T00:52:24;102299.06;;;11.88;67.97
23805;BME280;12083;52.098;7.582;2022-09-21T00:54:57;102288.56;;;11.85;67.76
23805;BME280;12083;52.098;7.582;2022-09-21T00:57:26;102297.31;;;11.83;68.16
23805;BME280;12083;52.098;7.582;2022-09-21T00:59:58;102290.28;;;11.82;68.04
23805;BME280;12083;52.098;7.582;2022-09-21T01:02:26;102296.47;;;11.79;67.75
23805;BME280;12083;52.098;7.582;2022-09-21T01:04:54;102297.34;;;11.77;68.15
23805;BME280;12083;52.098;7.582;2022-09-21T01:07:23;102297.38;;;11.74;67.97
23805;BME280;12083;52.098;7.582;2022-09-21T01:09:54;102291.22;;;11.72;68.10
23805;BME280;12083;52.098;7.582;2022-09-21T01:12:37;102295.59;;;11.67;68.31
23805;BME280;12083;52.098;7.582;2022-09-21T01:29:27;102302.66;;;11.53;68.51
23805;BME280;12083;52.098;7.582;2022-09-21T01:34:32;102314.94;;;11.47;68.83
23805;BME280;12083;52.098;7.582;2022-09-21T01:37:05;102316.69;;;11.44;68.59
23805;BME280;12083;52.098;7.582;2022-09-21T01:39:33;102313.19;;;11.40;68.55
23805;BME280;12083;52.098;7.582;2022-09-21T01:42:01;102321.97;;;11.36;68.50
23805;BME280;12083;52.098;7.582;2022-09-21T01:44:28;102313.25;;;11.31;68.51
23805;BME280;12083;52.098;7.582;2022-09-21T01:47:00;102308.84;;;11.27;68.78
23805;BME280;12083;52.098;7.582;2022-09-21T01:49:33;102309.75;;;11.23;68.92
23805;BME280;12083;52.098;7.582;2022-09-21T01:52:06;102304.47;;;11.20;68.98
23805;BME280;12083;52.098;7.582;2022-09-21T01:54:40;102302.72;;;11.18;68.90
23805;BME280;12083;52.098;7.582;2022-09-21T01:57:15;102306.25;;;11.15;68.71
23805;BME280;12083;52.098;7.582;2022-09-21T01:59:50;102308.84;;;11.14;68.96
23805;BME280;12083;52.098;7.582;2022-09-21T02:02:23;102307.09;;;11.10;68.99
23805;BME280;12083;52.098;7.582;2022-09-21T02:04:51;102309.75;;;11.08;68.88
23805;BME280;12083;52.098;7.582;2022-09-21T02:07:17;102316.75;;;11.06;68.83
23805;BME280;12083;52.098;7.582;2022-09-21T02:09:43;102313.25;;;11.01;68.92
23805;BME280;12083;52.098;7.582;2022-09-21T02:12:11;102304.47;;;11.00;68.98
23805;BME280;12083;52.098;7.582;2022-09-21T02:14:37;102305.34;;;10.98;69.03
23805;BME280;12083;52.098;7.582;2022-09-21T02:17:04;102306.22;;;10.97;68.97
23805;BME280;12083;52.098;7.582;2022-09-21T02:19:39;102308.00;;;10.95;68.97
23805;BME280;12083;52.098;7.582;2022-09-21T02:25:09;102312.38;;;10.91;68.78
23805;BME280;12083;52.098;7.582;2022-09-21T02:30:54;102311.50;;;10.88;69.01
23805;BME280;12083;52.098;7.582;2022-09-21T02:33:29;102309.75;;;10.84;69.09
23805;BME280;12083;52.098;7.582;2022-09-21T02:36:10;102309.75;;;10.81;69.01
23805;BME280;12083;52.098;7.582;2022-09-21T02:39:03;102305.34;;;10.78;69.17
23805;BME280;12083;52.098;7.582;2022-09-21T02:41:39;102309.75;;;10.73;69.01
23805;BME280;12083;52.098;7.582;2022-09-21T02:44:18;102305.38;;;10.69;69.42
23805;BME280;12083;52.098;7.582;2022-09-21T02:46:58;102311.47;;;10.71;69.39
23805;BME280;12083;52.098;7.582;2022-09-21T02:49:38;102315.88;;;10.69;69.47
23805;BME280;12083;52.098;7.582;2022-09-21T02:52:14;102315.00;;;10.66;69.54
23805;BME280;12083;52.098;7.582;2022-09-21T02:54:42;102310.59;;;10.65;69.49
23805;BME280;12083;52.098;7.582;2022-09-21T02:57:09;102316.72;;;10.64;69.63
23805;BME280;12083;52.098;7.582;2022-09-21T02:59:38;102314.09;;;10.61;69.42
23805;BME280;12083;52.098;7.582;2022-09-21T03:02:04;102314.97;;;10.60;69.65
23805;BME280;12083;52.098;7.582;2022-09-21T03:04:31;102312.34;;;10.60;69.29
23805;BME280;12083;52.098;7.582;2022-09-21T03:06:57;102314.97;;;10.60;69.67
23805;BME280;12083;52.098;7.582;2022-09-21T03:09:23;102320.22;;;10.60;69.72
23805;BME280;12083;52.098;7.582;2022-09-21T03:11:49;102320.22;;;10.60;69.74
23805;BME280;12083;52.098;7.582;2022-09-21T03:14:15;102320.22;;;10.57;69.86
23805;BME280;12083;52.098;7.582;2022-09-21T03:16:43;102316.69;;;10.55;70.01
23805;BME280;12083;52.098;7.582;2022-09-21T03:19:10;102314.97;;;10.54;70.06
23805;BME280;12083;52.098;7.582;2022-09-21T03:21:37;102322.84;;;10.52;69.94
23805;BME280;12083;52.098;7.582;2022-09-21T03:24:02;102321.97;;;10.51;69.93
23805;BME280;12083;52.098;7.582;2022-09-21T03:26:28;102325.44;;;10.50;70.10
23805;BME280;12083;52.098;7.582;2022-09-21T03:28:54;102325.44;;;10.47;70.24
23805;BME280;12083;52.098;7.582;2022-09-21T03:31:20;102328.06;;;10.47;70.07
23805;BME280;12083;52.098;7.582;2022-09-21T03:33:46;102331.59;;;10.45;69.88
23805;BME280;12083;52.098;7.582;2022-09-21T03:36:12;102332.47;;;10.45;70.10
23805;BME280;12083;52.098;7.582;2022-09-21T03:38:38;102322.81;;;10.41;70.26
23805;BME280;12083;52.098;7.582;2022-09-21T03:41:04;102328.94;;;10.40;70.38
23805;BME280;12083;52.098;7.582;2022-09-21T03:43:30;102331.56;;;10.39;70.32
23805;BME280;12083;52.098;7.582;2022-09-21T03:45:55;102342.06;;;10.39;70.64
23805;BME280;12083;52.098;7.582;2022-09-21T03:48:22;102332.44;;;10.38;70.47
23805;BME280;12083;52.098;7.582;2022-09-21T03:50:48;102325.44;;;10.38;70.25
23805;BME280;12083;52.098;7.582;2022-09-21T03:53:14;102337.69;;;10.39;70.82
23805;BME280;12083;52.098;7.582;2022-09-21T03:55:40;102335.06;;;10.36;70.54
23805;BME280;12083;52.098;7.582;2022-09-21T03:58:07;102336.81;;;10.36;70.54
23805;BME280;12083;52.098;7.582;2022-09-21T04:00:33;102334.19;;;10.34;70.96
23805;BME280;12083;52.098;7.582;2022-09-21T04:02:59;102335.06;;;10.33;71.05
23805;BME280;12083;52.098;7.582;2022-09-21T04:05:26;102334.16;;;10.31;71.22
23805;BME280;12083;52.098;7.582;2022-09-21T04:07:53;102332.44;;;10.33;71.18
23805;BME280;12083;52.098;7.582;2022-09-21T04:10:20;102334.19;;;10.34;71.60
23805;BME280;12083;52.098;7.582;2022-09-21T04:12:48;102345.59;;;10.35;71.38
23805;BME280;12083;52.098;7.582;2022-09-21T05:17:50;102359.44;;;10.10;72.33
23805;BME280;12083;52.098;7.582;2022-09-21T05:20:16;102358.56;;;10.08;73.02
23805;BME280;12083;52.098;7.582;2022-09-21T05:22:41;102374.31;;;10.09;72.53
23805;BME280;12083;52.098;7.582;2022-09-21T05:25:08;102369.06;;;10.09;73.15
23805;BME280;12083;52.098;7.582;2022-09-21T05:27:33;102373.44;;;10.09;73.09
23805;BME280;12083;52.098;7.582;2022-09-21T05:29:59;102370.81;;;10.07;73.24
23805;BME280;12083;52.098;7.582;2022-09-21T05:32:47;102374.31;;;10.06;72.88
23805;BME280;12083;52.098;7.582;2022-09-21T05:35:34;102375.19;;;10.07;73.09
23805;BME280;12083;52.098;7.582;2022-09-21T05:38:15;102386.56;;;10.07;72.90
23805;BME280;12083;52.098;7.582;2022-09-21T05:40:43;102390.06;;;10.06;73.48
23805;BME280;12083;52.098;7.582;2022-09-21T05:43:10;102390.06;;;10.06;73.64
23805;BME280;12083;52.098;7.582;2022-09-21T05:45:39;102394.41;;;10.04;73.64
23805;BME280;12083;52.098;7.582;2022-09-21T05:48:20;102391.78;;;10.04;73.65
23805;BME280;12083;52.098;7.582;2022-09-21T05:51:00;102386.53;;;10.02;73.52
23805;BME280;12083;52.098;7.582;2022-09-21T05:53:47;102398.81;;;10.05;73.68
23805;BME280;12083;52.098;7.582;2022-09-21T06:04:42;102399.75;;;10.16;74.02
23805;BME280;12083;52.098;7.582;2022-09-21T06:07:08;102411.16;;;10.18;74.14
23805;BME280;12083;52.098;7.582;2022-09-21T06:09:34;102400.66;;;10.18;74.16
23805;BME280;12083;52.098;7.582;2022-09-21T06:11:59;102400.66;;;10.21;73.99
23805;BME280;12083;52.098;7.582;2022-09-21T06:14:25;102410.31;;;10.22;73.92
23805;BME280;12083;52.098;7.582;2022-09-21T06:16:51;102403.31;;;10.24;74.19
23805;BME280;12083;52.098;7.582;2022-09-21T06:19:17;102410.31;;;10.28;74.30
23805;BME280;12083;52.098;7.582;2022-09-21T06:21:43;102411.22;;;10.33;74.37
23805;BME280;12083;52.098;7.582;2022-09-21T06:24:09;102423.50;;;10.37;74.28
23805;BME280;12083;52.098;7.582;2022-09-21T06:26:34;102418.28;;;10.43;74.35
23805;BME280;12083;52.098;7.582;2022-09-21T06:29:00;102418.28;;;10.43;74.35
23805;BME280;12083;52.098;7.582;2022-09-21T06:31:26;102410.41;;;10.45;73.92
23805;BME280;12083;52.098;7.582;2022-09-21T06:33:52;102414.78;;;10.44;74.30
23805;BME280;12083;52.098;7.582;2022-09-21T06:36:18;102420.06;;;10.49;74.09
23805;BME280;12083;52.098;7.582;2022-09-21T06:38:44;102413.94;;;10.55;74.12
23805;BME280;12083;52.098;7.582;2022-09-21T06:41:09;102410.44;;;10.60;73.92
23805;BME280;12083;52.098;7.582;2022-09-21T06:43:35;102401.72;;;10.64;74.30
23805;BME280;12083;52.098;7.582;2022-09-21T06:46:02;102406.09;;;10.70;74.56
23805;BME280;12083;52.098;7.582;2022-09-21T06:48:29;102416.63;;;10.76;74.47
23805;BME280;12083;52.098;7.582;2022-09-21T06:50:56;102416.63;;;10.82;74.14
23805;BME280;12083;52.098;7.582;2022-09-21T06:53:22;102411.41;;;10.85;74.56
23805;BME280;12083;52.098;7.582;2022-09-21T06:55:48;102411.41;;;10.88;74.39
23805;BME280;12083;52.098;7.582;2022-09-21T06:58:14;102414.91;;;10.93;74.76
23805;BME280;12083;52.098;7.582;2022-09-21T07:00:39;102418.41;;;11.01;74.60
23805;BME280;12083;52.098;7.582;2022-09-21T07:03:05;102419.31;;;11.09;74.46
23805;BME280;12083;52.098;7.582;2022-09-21T07:05:32;102401.78;;;11.17;74.44
23805;BME280;12083;52.098;7.582;2022-09-21T07:07:58;102408.81;;;11.27;74.51
23805;BME280;12083;52.098;7.582;2022-09-21T07:10:24;102418.47;;;11.37;74.85
23805;BME280;12083;52.098;7.582;2022-09-21T07:12:50;102411.44;;;11.48;74.56
23805;BME280;12083;52.098;7.582;2022-09-21T07:15:18;102416.69;;;11.61;74.89
23805;BME280;12083;52.098;7.582;2022-09-21T07:17:46;102421.97;;;11.76;75.08
23805;BME280;12083;52.098;7.582;2022-09-21T07:20:11;102417.56;;;11.91;75.32
23805;BME280;12083;52.098;7.582;2022-09-21T07:22:37;102412.22;;;12.14;75.56
23805;BME280;12083;52.098;7.582;2022-09-21T07:25:04;102404.19;;;12.45;75.83
23805;BME280;12083;52.098;7.582;2022-09-21T07:27:31;102404.91;;;12.77;75.46
23805;BME280;12083;52.098;7.582;2022-09-21T07:29:57;102409.13;;;13.02;75.30
23805;BME280;12083;52.098;7.582;2022-09-21T07:32:23;102413.44;;;13.18;75.25
23805;BME280;12083;52.098;7.582;2022-09-21T07:34:50;102412.47;;;13.28;74.76
23805;BME280;12083;52.098;7.582;2022-09-21T07:37:22;102407.16;;;13.34;74.74
23805;BME280;12083;52.098;7.582;2022-09-21T07:39:49;102414.16;;;13.39;75.05
23805;BME280;12083;52.098;7.582;2022-09-21T07:42:18;102407.13;;;13.39;75.04
23805;BME280;12083;52.098;7.582;2022-09-21T07:44:48;102412.31;;;13.48;74.65
23805;BME280;12083;52.098;7.582;2022-09-21T07:47:18;102408.75;;;13.54;74.92
23805;BME280;12083;52.098;7.582;2022-09-21T07:49:43;102411.31;;;13.61;75.10
23805;BME280;12083;52.098;7.582;2022-09-21T07:52:11;102409.50;;;13.68;74.90
23805;BME280;12083;52.098;7.582;2022-09-21T07:54:36;102404.16;;;13.72;74.63
23805;BME280;12083;52.098;7.582;2022-09-21T07:57:02;102412.06;;;13.78;74.60
23805;BME280;12083;52.098;7.582;2022-09-21T07:59:46;102411.94;;;13.89;74.21
23805;BME280;12083;52.098;7.582;2022-09-21T08:02:12;102402.19;;;13.93;74.25
23805;BME280;12083;52.098;7.582;2022-09-21T08:04:37;102409.97;;;14.06;73.57
23805;BME280;12083;52.098;7.582;2022-09-21T08:07:03;102409.91;;;14.12;73.36
23805;BME280;12083;52.098;7.582;2022-09-21T08:09:29;102405.41;;;14.19;73.06
23805;BME280;12083;52.098;7.582;2022-09-21T08:11:55;102408.97;;;14.16;73.48
23805;BME280;12083;52.098;7.582;2022-09-21T08:14:21;102415.06;;;14.21;73.78
23805;BME280;12083;52.098;7.582;2022-09-21T08:16:47;102411.50;;;14.25;73.66
23805;BME280;12083;52.098;7.582;2022-09-21T08:19:13;102407.03;;;14.32;73.80
23805;BME280;12083;52.098;7.582;2022-09-21T08:21:40;102408.78;;;14.35;73.69
23805;BME280;12083;52.098;7.582;2022-09-21T08:24:06;102417.56;;;14.38;73.74
23805;BME280;12083;52.098;7.582;2022-09-21T08:26:32;102421.91;;;14.42;73.51
23805;BME280;12083;52.098;7.582;2022-09-21T08:28:58;102421.03;;;14.43;73.53
23805;BME280;12083;52.098;7.582;2022-09-21T08:31:24;102425.38;;;14.46;73.78
23805;BME280;12083;52.098;7.582;2022-09-21T08:33:51;102420.03;;;14.50;73.43
23805;BME280;12083;52.098;7.582;2022-09-21T08:36:17;102421.69;;;14.59;73.38
23805;BME280;12083;52.098;7.582;2022-09-21T08:38:43;102417.19;;;14.67;73.29
23805;BME280;12083;52.098;7.582;2022-09-21T08:41:34;102419.78;;;14.70;73.01
23805;BME280;12083;52.098;7.582;2022-09-21T08:44:18;102421.34;;;14.85;72.40
23805;BME280;12083;52.098;7.582;2022-09-21T08:46:50;102425.63;;;14.93;72.11
23805;BME280;12083;52.098;7.582;2022-09-21T08:49:24;102414.97;;;14.98;72.31
23805;BME280;12083;52.098;7.582;2022-09-21T08:52:01;102416.75;;;14.96;72.52
23805;BME280;12083;52.098;7.582;2022-09-21T08:57:40;102426.28;;;15.09;72.70
23805;BME280;12083;52.098;7.582;2022-09-21T09:00:12;102426.16;;;15.16;72.64
23805;BME280;12083;52.098;7.582;2022-09-21T09:03:08;102421.63;;;15.24;72.56
23805;BME280;12083;52.098;7.582;2022-09-21T09:21:46;102424.44;;;15.67;71.96
23805;BME280;12083;52.098;7.582;2022-09-21T09:24:31;102434.94;;;15.72;71.95
23805;BME280;12083;52.098;7.582;2022-09-21T09:27:24;102430.44;;;15.79;71.92
23805;BME280;12083;52.098;7.582;2022-09-21T09:35:26;102427.38;;;16.00;71.46
23805;BME280;12083;52.098;7.582;2022-09-21T09:38:01;102436.94;;;16.08;71.28
23805;BME280;12083;52.098;7.582;2022-09-21T09:51:13;102423.59;;;16.54;71.09
23805;BME280;12083;52.098;7.582;2022-09-21T09:53:39;102419.13;;;16.59;70.89
23805;BME280;12083;52.098;7.582;2022-09-21T09:56:08;102424.25;;;16.67;70.72
23805;BME280;12083;52.098;7.582;2022-09-21T09:58:51;102410.84;;;16.73;70.63
23805;BME280;12083;52.098;7.582;2022-09-21T10:01:43;102419.41;;;16.86;70.50
23805;BME280;12083;52.098;7.582;2022-09-21T10:04:13;102418.31;;;16.94;70.17
23805;BME280;12083;52.098;7.582;2022-09-21T10:06:39;102410.09;;;17.05;70.05
23805;BME280;12083;52.098;7.582;2022-09-21T10:09:30;102414.28;;;17.15;69.92
23805;BME280;12083;52.098;7.582;2022-09-21T10:12:02;102413.09;;;17.27;69.46
23805;BME280;12083;52.098;7.582;2022-09-21T10:14:33;102407.47;;;17.39;69.40
23805;BME280;12083;52.098;7.582;2022-09-21T10:17:05;102415.19;;;17.49;68.80
23805;BME280;12083;52.098;7.582;2022-09-21T10:19:32;102410.56;;;17.59;68.58
23805;BME280;12083;52.098;7.582;2022-09-21T10:22:00;102408.47;;;17.70;68.47
23805;BME280;12083;52.098;7.582;2022-09-21T10:24:30;102409.94;;;17.82;68.16
23805;BME280;12083;52.098;7.582;2022-09-21T10:29:41;102405.66;;;18.08;67.30
23805;BME280;12083;52.098;7.582;2022-09-21T10:34:59;102398.19;;;18.52;66.14
23805;BME280;12083;52.098;7.582;2022-09-21T10:37:30;102401.03;;;18.75;64.92
23805;BME280;12083;52.098;7.582;2022-09-21T10:39:59;102398.06;;;19.12;63.90
23805;BME280;12083;52.098;7.582;2022-09-21T10:42:28;102395.78;;;19.54;62.58
23805;BME280;12083;52.098;7.582;2022-09-21T10:47:42;102387.09;;;20.47;59.58
23805;BME280;12083;52.098;7.582;2022-09-21T10:50:47;102390.19;;;21.03;58.67
23805;BME280;12083;52.098;7.582;2022-09-21T10:53:22;102381.53;;;21.60;57.28
23805;BME280;12083;52.098;7.582;2022-09-21T10:56:02;102381.94;;;22.11;56.27
23805;BME280;12083;52.098;7.582;2022-09-21T10:58:29;102377.19;;;22.55;54.55
23805;BME280;12083;52.098;7.582;2022-09-21T11:01:08;102383.66;;;23.06;53.41
23805;BME280;12083;52.098;7.582;2022-09-21T11:03:50;102367.03;;;23.52;52.49
23805;BME280;12083;52.098;7.582;2022-09-21T11:06:30;102366.94;;;23.71;52.18
23805;BME280;12083;52.098;7.582;2022-09-21T11:09:00;102360.28;;;24.28;51.84
23805;BME280;12083;52.098;7.582;2022-09-21T11:14:09;102358.72;;;25.48;49.42
23805;BME280;12083;52.098;7.582;2022-09-21T11:16:46;102356.41;;;26.14;48.49
23805;BME280;12083;52.098;7.582;2022-09-21T11:19:19;102350.63;;;26.89;47.47
23805;BME280;12083;52.098;7.582;2022-09-21T11:21:57;102345.97;;;27.58;46.36
23805;BME280;12083;52.098;7.582;2022-09-21T11:24:35;102349.13;;;28.15;45.55
23805;BME280;12083;52.098;7.582;2022-09-21T11:27:07;102345.34;;;28.90;44.54
23805;BME280;12083;52.098;7.582;2022-09-21T11:38:20;102332.25;;;31.30;41.33
23805;BME280;12083;52.098;7.582;2022-09-21T11:46:58;102328.69;;;32.41;38.74
23805;BME280;12083;52.098;7.582;2022-09-21T11:51:53;102326.94;;;32.80;37.81
23805;BME280;12083;52.098;7.582;2022-09-21T11:57:42;102317.59;;;32.64;36.68
23805;BME280;12083;52.098;7.582;2022-09-21T12:00:18;102321.34;;;31.92;37.16
23805;BME280;12083;52.098;7.582;2022-09-21T12:03:26;102320.63;;;31.49;37.29
23805;BME280;12083;52.098;7.582;2022-09-21T12:06:19;102313.19;;;31.62;37.14
23805;BME280;12083;52.098;7.582;2022-09-21T12:14:07;102300.00;;;32.18;35.79
23805;BME280;12083;52.098;7.582;2022-09-21T12:19:41;102298.31;;;32.27;35.21
23805;BME280;12083;52.098;7.582;2022-09-21T12:22:15;102298.63;;;31.52;35.54
23805;BME280;12083;52.098;7.582;2022-09-21T12:24:46;102298.31;;;30.61;36.43
23805;BME280;12083;52.098;7.582;2022-09-21T12:27:27;102298.16;;;30.19;36.68
23805;BME280;12083;52.098;7.582;2022-09-21T12:30:11;102295.06;;;30.02;36.52
23805;BME280;12083;52.098;7.582;2022-09-21T12:32:53;102296.03;;;29.90;36.43
23805;BME280;12083;52.098;7.582;2022-09-21T12:35:52;102289.63;;;29.79;36.01
23805;BME280;12083;52.098;7.582;2022-09-21T12:38:27;102292.19;;;29.59;36.49
23805;BME280;12083;52.098;7.582;2022-09-21T12:41:05;102303.47;;;29.30;36.43
23805;BME280;12083;52.098;7.582;2022-09-21T12:43:40;102293.53;;;29.07;36.39
23805;BME280;12083;52.098;7.582;2022-09-21T12:46:19;102287.78;;;28.88;36.43
23805;BME280;12083;52.098;7.582;2022-09-21T12:48:45;102293.03;;;28.66;36.33
23805;BME280;12083;52.098;7.582;2022-09-21T12:51:20;102289.88;;;28.48;36.03
23805;BME280;12083;52.098;7.582;2022-09-21T12:53:51;102279.88;;;28.37;36.33
23805;BME280;12083;52.098;7.582;2022-09-21T12:56:23;102283.25;;;28.28;36.29
23805;BME280;12083;52.098;7.582;2022-09-21T12:59:12;102279.72;;;28.03;35.97
23805;BME280;12083;52.098;7.582;2022-09-21T13:09:59;102273.41;;;27.01;36.29
23805;BME280;12083;52.098;7.582;2022-09-21T13:12:37;102279.16;;;26.82;36.18
23805;BME280;12083;52.098;7.582;2022-09-21T13:15:22;102276.25;;;26.59;36.61
23805;BME280;12083;52.098;7.582;2022-09-21T13:18:16;102275.50;;;26.30;36.50
23805;BME280;12083;52.098;7.582;2022-09-21T13:20:43;102276.53;;;25.99;36.94
23805;BME280;12083;52.098;7.582;2022-09-21T13:23:20;102268.03;;;25.64;36.60
23805;BME280;12083;52.098;7.582;2022-09-21T13:25:49;102265.47;;;25.33;36.64
23805;BME280;12083;52.098;7.582;2022-09-21T13:28:58;102266.97;;;24.93;36.73
23805;BME280;12083;52.098;7.582;2022-09-21T13:31:51;102259.75;;;24.63;37.08
23805;BME280;12083;52.098;7.582;2022-09-21T13:34:28;102268.25;;;24.40;37.54
23805;BME280;12083;52.098;7.582;2022-09-21T13:44:55;102266.66;;;23.39;38.20
23805;BME280;12083;52.098;7.582;2022-09-21T13:47:32;102264.91;;;23.21;38.17
23805;BME280;12083;52.098;7.582;2022-09-21T13:50:00;102263.28;;;23.01;38.39
23805;BME280;12083;52.098;7.582;2022-09-21T13:52:44;102270.44;;;22.84;38.45
23805;BME280;12083;52.098;7.582;2022-09-21T13:55:32;102256.94;;;22.68;38.51
23805;BME280;12083;52.098;7.582;2022-09-21T13:58:02;102252.41;;;22.51;38.70
23805;BME280;12083;52.098;7.582;2022-09-21T14:00:38;102249.44;;;22.39;38.60
23805;BME280;12083;52.098;7.582;2022-09-21T14:03:22;102248.50;;;22.21;38.97
23805;BME280;12083;52.098;7.582;2022-09-21T14:05:52;102250.06;;;22.08;38.77
23805;BME280;12083;52.098;7.582;2022-09-21T14:08:25;102255.25;;;21.92;39.01
23805;BME280;12083;52.098;7.582;2022-09-21T14:10:57;102257.75;;;21.76;39.37
23805;BME280;12083;52.098;7.582;2022-09-21T14:16:48;102250.50;;;21.39;39.23
23805;BME280;12083;52.098;7.582;2022-09-21T14:24:40;102248.59;;;21.01;39.62
23805;BME280;12083;52.098;7.582;2022-09-21T14:27:27;102242.84;;;20.90;39.74
23805;BME280;12083;52.098;7.582;2022-09-21T14:30:18;102241.44;;;20.81;39.71
23805;BME280;12083;52.098;7.582;2022-09-21T14:32:50;102248.94;;;20.73;39.92
23805;BME280;12083;52.098;7.582;2022-09-21T14:35:21;102247.50;;;20.65;39.97
23805;BME280;12083;52.098;7.582;2022-09-21T14:37:54;102236.13;;;20.60;40.37
23805;BME280;12083;52.098;7.582;2022-09-21T14:40:30;102237.13;;;20.57;40.21
23805;BME280;12083;52.098;7.582;2022-09-21T14:42:59;102237.38;;;20.51;40.23
23805;BME280;12083;52.098;7.582;2022-09-21T14:45:51;102228.69;;;20.46;40.33
23805;BME280;12083;52.098;7.582;2022-09-21T15:02:30;102224.25;;;20.23;40.69
23805;BME280;12083;52.098;7.582;2022-09-21T15:07:44;102212.03;;;20.18;40.79
23805;BME280;12083;52.098;7.582;2022-09-21T15:10:31;102209.53;;;20.13;40.90
23805;BME280;12083;52.098;7.582;2022-09-21T15:18:40;102208.09;;;20.05;41.06
23805;BME280;12083;52.098;7.582;2022-09-21T15:21:29;102200.91;;;20.07;41.10
23805;BME280;12083;52.098;7.582;2022-09-21T15:23:56;102208.03;;;20.06;41.13
23805;BME280;12083;52.098;7.582;2022-09-21T15:26:31;102201.03;;;20.04;41.24
23805;BME280;12083;52.098;7.582;2022-09-21T15:29:02;102205.50;;;20.03;41.32
23805;BME280;12083;52.098;7.582;2022-09-21T15:31:34;102197.50;;;20.03;41.41
23805;BME280;12083;52.098;7.582;2022-09-21T15:34:03;102200.34;;;19.98;41.29
23805;BME280;12083;52.098;7.582;2022-09-21T15:36:37;102195.91;;;19.97;41.28
23805;BME280;12083;52.098;7.582;2022-09-21T15:39:04;102196.00;;;19.96;41.43
23805;BME280;12083;52.098;7.582;2022-09-21T15:41:37;102192.59;;;19.92;41.38
23805;BME280;12083;52.098;7.582;2022-09-21T15:44:22;102185.56;;;19.90;41.51
23805;BME280;12083;52.098;7.582;2022-09-21T15:46:51;102187.47;;;19.86;41.57
23805;BME280;12083;52.098;7.582;2022-09-21T15:49:19;102191.06;;;19.85;41.67
23805;BME280;12083;52.098;7.582;2022-09-21T15:51:58;102195.59;;;19.83;41.70
23805;BME280;12083;52.098;7.582;2022-09-21T15:54:34;102188.59;;;19.81;41.79
23805;BME280;12083;52.098;7.582;2022-09-21T15:57:03;102193.06;;;19.80;41.71
23805;BME280;12083;52.098;7.582;2022-09-21T15:59:33;102182.56;;;19.76;41.88
23805;BME280;12083;52.098;7.582;2022-09-21T16:02:08;102187.16;;;19.72;42.02
23805;BME280;12083;52.098;7.582;2022-09-21T16:04:35;102190.88;;;19.68;42.24
23805;BME280;12083;52.098;7.582;2022-09-21T16:07:31;102185.56;;;19.67;42.41
23805;BME280;12083;52.098;7.582;2022-09-21T16:09:58;102185.75;;;19.62;42.31
23805;BME280;12083;52.098;7.582;2022-09-21T16:12:37;102191.09;;;19.62;42.56
23805;BME280;12083;52.098;7.582;2022-09-21T16:15:15;102184.13;;;19.58;42.81
23805;BME280;12083;52.098;7.582;2022-09-21T16:17:56;102188.66;;;19.56;42.92
23805;BME280;12083;52.098;7.582;2022-09-21T16:20:46;102179.91;;;19.53;43.03
23805;BME280;12083;52.098;7.582;2022-09-21T16:23:18;102179.16;;;19.49;43.30
23805;BME280;12083;52.098;7.582;2022-09-21T16:25:53;102176.63;;;19.46;43.41
23805;BME280;12083;52.098;7.582;2022-09-21T16:30:54;102180.38;;;19.39;43.57
23805;BME280;12083;52.098;7.582;2022-09-21T16:33:42;102183.13;;;19.37;43.64
23805;BME280;12083;52.098;7.582;2022-09-21T16:38:59;102185.34;;;19.25;44.01
23805;BME280;12083;52.098;7.582;2022-09-21T16:41:39;102191.69;;;19.22;44.10
23805;BME280;12083;52.098;7.582;2022-09-21T16:44:14;102198.91;;;19.19;44.28
23805;BME280;12083;52.098;7.582;2022-09-21T16:47:00;102184.88;;;19.14;44.39
23805;BME280;12083;52.098;7.582;2022-09-21T16:49:28;102187.78;;;19.08;44.62
23805;BME280;12083;52.098;7.582;2022-09-21T16:51:57;102190.53;;;19.04;44.84
23805;BME280;12083;52.098;7.582;2022-09-21T16:54:24;102191.63;;;18.99;44.89
23805;BME280;12083;52.098;7.582;2022-09-21T16:56:53;102187.44;;;18.92;45.11